createdAt,value
2023-04-24T00:08:12.068Z,62.57
2023-04-24T00:18:33.069Z,62.50
2023-04-24T00:28:54.436Z,62.58
2023-04-24T00:39:16.776Z,63.14
2023-04-24T00:49:38.179Z,62.92
2023-04-24T00:59:59.540Z,63.03
2023-04-24T01:10:21.566Z,62.92
2023-04-24T01:20:45.280Z,63.17
2023-04-24T01:31:07.128Z,62.67
2023-04-24T01:41:28.909Z,62.51
2023-04-24T01:51:49.969Z,62.72
2023-04-24T02:02:11.160Z,62.94
2023-04-24T02:12:32.639Z,62.78
2023-04-24T02:22:54.273Z,62.83
2023-04-24T02:33:15.999Z,63.03
2023-04-24T02:43:37.059Z,63.08
2023-04-24T02:53:58.750Z,63.06
2023-04-24T03:04:21.631Z,63.49
2023-04-24T03:14:43.555Z,63.64
2023-04-24T03:25:05.401Z,63.78
2023-04-24T03:35:26.989Z,64.17
2023-04-24T03:45:49.069Z,64.13
2023-04-24T03:56:12.340Z,63.96
2023-04-24T04:06:37.418Z,64.32
2023-04-24T04:16:59.993Z,64.05
2023-04-24T04:27:22.700Z,63.71
2023-04-24T04:37:52.683Z,64.41
2023-04-24T04:48:28.766Z,63.58
2023-04-24T04:58:53.027Z,64.60
2023-04-24T05:09:14.444Z,64.68
2023-04-24T05:19:45.240Z,64.63
2023-04-24T05:30:09.153Z,64.29
2023-04-24T05:40:31.011Z,64.67
2023-04-24T05:50:53.699Z,64.36
2023-04-24T06:01:17.936Z,64.70
2023-04-24T06:11:44.021Z,64.86
2023-04-24T06:22:08.513Z,64.66
2023-04-24T06:32:32.289Z,64.66
2023-04-24T06:42:54.741Z,64.82
2023-04-24T06:53:15.888Z,64.54
2023-04-24T07:03:37.926Z,65.16
2023-04-24T07:13:59.595Z,64.99
2023-04-24T07:24:22.292Z,64.90
2023-04-24T07:34:44.098Z,65.12
2023-04-24T07:45:06.150Z,64.65
2023-04-24T07:55:28.346Z,64.70
2023-04-24T08:05:49.938Z,65.05
2023-04-24T08:16:11.593Z,65.05
2023-04-24T08:26:33.164Z,64.75
2023-04-24T08:36:54.495Z,64.32
2023-04-24T08:47:16.609Z,64.66
2023-04-24T08:57:41.404Z,64.81
2023-04-24T09:08:03.364Z,64.91
2023-04-24T09:18:24.646Z,64.61
2023-04-24T09:28:47.297Z,64.48
2023-04-24T09:39:21.405Z,64.35
2023-04-24T09:49:45.222Z,64.18
2023-04-24T10:00:07.495Z,63.92
2023-04-24T10:10:35.287Z,63.47
2023-04-24T10:20:57.370Z,63.44
2023-04-24T10:31:18.962Z,63.01
2023-04-24T10:41:40.096Z,62.95
2023-04-24T10:52:02.684Z,62.75
2023-04-24T11:02:37.694Z,62.48
2023-04-24T11:12:59.022Z,62.23
2023-04-24T11:23:20.621Z,61.90
2023-04-24T11:33:41.971Z,61.85
2023-04-24T11:44:04.640Z,61.65
2023-04-24T11:54:26.321Z,61.21
2023-04-24T12:04:48.851Z,61.36
2023-04-24T12:15:11.068Z,61.14
2023-04-24T12:25:33.989Z,61.67
2023-04-24T12:35:56.625Z,61.71
2023-04-24T12:46:19.353Z,61.69
2023-04-24T12:56:42.152Z,61.37
2023-04-24T13:07:03.416Z,60.81
2023-04-24T13:17:24.482Z,60.38
2023-04-24T13:27:45.972Z,60.05
2023-04-24T13:38:12.211Z,60.36
2023-04-24T13:48:33.664Z,59.81
2023-04-24T13:58:57.443Z,59.11
2023-04-24T14:09:18.665Z,59.03
2023-04-24T14:19:39.885Z,57.73
2023-04-24T14:30:01.184Z,57.48
2023-04-24T14:40:45.400Z,57.52
2023-04-24T14:51:03.793Z,57.01
2023-04-24T15:01:27.840Z,56.94
2023-04-24T15:11:49.894Z,56.57
2023-04-24T15:22:12.428Z,56.00
2023-04-24T15:32:34.235Z,55.72
2023-04-24T15:42:55.408Z,55.82
2023-04-24T15:53:22.665Z,55.74
2023-04-24T16:03:44.581Z,55.30
2023-04-24T16:14:07.091Z,55.45
2023-04-24T16:24:29.480Z,55.28
2023-04-24T16:34:50.867Z,54.00
2023-04-24T16:45:12.302Z,54.50
2023-04-24T16:55:33.674Z,54.33
2023-04-24T17:05:54.859Z,54.37
2023-04-24T17:16:16.226Z,54.79
2023-04-24T17:26:37.638Z,55.05
2023-04-24T17:36:59.117Z,54.44
2023-04-24T17:47:22.737Z,55.10
2023-04-24T17:57:43.894Z,55.38
2023-04-24T18:08:05.578Z,54.79
2023-04-24T18:18:26.559Z,54.78
2023-04-24T18:28:48.142Z,54.84
2023-04-24T18:39:09.848Z,54.94
2023-04-24T18:49:31.137Z,54.95
2023-04-24T18:59:52.263Z,54.95
2023-04-24T19:10:14.555Z,54.86
2023-04-24T19:20:36.064Z,55.09
2023-04-24T19:30:58.923Z,55.39
2023-04-24T19:41:19.990Z,55.92
2023-04-24T19:51:42.200Z,55.36
2023-04-24T20:02:04.578Z,55.73
2023-04-24T20:12:26.116Z,56.18
2023-04-24T20:22:48.130Z,56.33
2023-04-24T20:33:09.305Z,55.94
2023-04-24T20:43:30.454Z,56.92
2023-04-24T20:53:51.812Z,55.93
2023-04-24T21:04:12.957Z,56.65
2023-04-24T21:14:34.175Z,56.39
2023-04-24T21:24:55.817Z,56.10
2023-04-24T21:35:17.197Z,56.36
2023-04-24T21:45:38.524Z,57.17
2023-04-24T21:56:00.006Z,57.37
2023-04-24T22:06:21.262Z,56.78
2023-04-24T22:16:43.334Z,57.48
2023-04-24T22:27:04.585Z,56.69
2023-04-24T22:37:25.942Z,57.29
2023-04-24T22:47:47.374Z,57.75
2023-04-24T22:58:08.353Z,56.17
2023-04-24T23:08:30.792Z,57.05
2023-04-24T23:18:51.960Z,57.21
2023-04-24T23:29:12.860Z,56.76
2023-04-24T23:39:34.019Z,57.55
2023-04-24T23:49:55.675Z,56.77
